Time;durP1;ratioP1;P1;durP2;ratioP2;P2;SDS_P1;SDS_P2;PMS_P1;PMS_P2;Temp;Humidity;BMP_temperature;BMP_pressure;BME280_temperature;BME280_humidity;BME280_pressure;Samples;Min_cycle;Max_cycle;Signal;HPM_P1;HPM_P2
2023/03/26 00:00:43;;;;;;;6.15;1.40;;;9.20;99.90;;;;;;5010322;28;20026;-59
2023/03/26 00:03:10;;;;;;;9.82;2.15;;;9.20;99.90;;;;;;5009029;28;20790;-59
2023/03/26 00:05:39;;;;;;;11.38;2.67;;;9.20;99.90;;;;;;5009676;28;20105;-59
2023/03/26 00:08:09;;;;;;;2.58;1.45;;;9.00;99.90;;;;;;5009580;28;20030;-57
2023/03/26 00:10:38;;;;;;;6.65;2.03;;;9.10;99.90;;;;;;5008507;28;20030;-60
2023/03/26 00:13:05;;;;;;;7.95;1.80;;;9.00;99.90;;;;;;5009362;28;20107;-61
2023/03/26 00:15:32;;;;;;;5.15;1.67;;;8.90;99.90;;;;;;5009196;28;20054;-55
2023/03/26 00:17:59;;;;;;;7.85;2.35;;;8.90;99.90;;;;;;5009457;28;20084;-56
2023/03/26 00:20:26;;;;;;;4.70;1.63;;;8.80;99.90;;;;;;5011450;28;20026;-49
2023/03/26 00:22:52;;;;;;;4.35;1.50;;;8.80;99.90;;;;;;4999019;22;1016625;-46
2023/03/26 00:25:19;;;;;;;5.95;2.00;;;8.80;99.90;;;;;;5013631;28;20552;-46
2023/03/26 00:27:44;;;;;;;4.55;1.60;;;8.80;99.90;;;;;;5013314;28;20022;-46
2023/03/26 00:30:11;;;;;;;5.30;2.42;;;8.70;99.90;;;;;;5013689;28;20508;-46
2023/03/26 00:32:37;;;;;;;8.38;1.98;;;8.70;99.90;;;;;;5013245;28;20029;-47
2023/03/26 00:35:03;;;;;;;8.07;1.77;;;8.70;99.90;;;;;;5013530;28;20448;-44
2023/03/26 00:37:29;;;;;;;7.40;2.35;;;8.70;99.90;;;;;;5013339;28;20045;-47
2023/03/26 00:40:03;;;;;;;11.57;3.13;;;8.70;99.90;;;;;;5013220;28;20018;-49
2023/03/26 00:42:29;;;;;;;4.43;1.50;;;8.70;99.90;;;;;;5013048;28;20028;-48
2023/03/26 00:44:56;;;;;;;7.05;1.75;;;8.70;99.90;;;;;;5013139;28;20026;-45
2023/03/26 00:47:23;;;;;;;6.57;1.45;;;8.60;99.90;;;;;;5012827;28;20029;-44
2023/03/26 00:49:49;;;;;;;8.48;1.95;;;8.60;99.90;;;;;;5013263;28;20034;-44
2023/03/26 00:52:17;;;;;;;6.40;1.80;;;8.60;99.90;;;;;;5012604;28;20022;-45
2023/03/26 00:54:44;;;;;;;5.65;1.58;;;8.60;99.90;;;;;;5013054;28;20195;-45
2023/03/26 00:57:10;;;;;;;7.78;1.88;;;8.70;99.90;;;;;;4994974;28;20445;-44
2023/03/26 00:59:37;;;;;;;6.88;2.05;;;8.70;99.90;;;;;;5012783;28;20022;-44
2023/03/26 01:02:03;;;;;;;6.55;2.20;;;8.60;99.90;;;;;;5012656;28;20045;-45
2023/03/26 01:04:33;;;;;;;7.40;2.47;;;8.60;99.90;;;;;;5014653;28;20061;-48
2023/03/26 01:07:03;;;;;;;10.77;3.63;;;8.60;99.90;;;;;;5012757;28;20021;-42
2023/03/26 01:09:36;;;;;;;9.80;3.08;;;8.60;99.90;;;;;;5012884;28;20109;-45
2023/03/26 01:12:05;;;;;;;9.52;2.10;;;8.70;99.90;;;;;;5012386;28;20563;-45
2023/03/26 01:14:32;;;;;;;9.23;1.85;;;8.70;99.90;;;;;;5012528;28;20032;-48
2023/03/26 01:17:00;;;;;;;8.55;2.00;;;8.70;99.90;;;;;;5012401;28;20022;-45
2023/03/26 01:19:38;;;;;;;15.45;2.13;;;8.60;99.90;;;;;;5012448;28;20405;-44
2023/03/26 01:22:09;;;;;;;7.03;1.73;;;8.60;99.90;;;;;;5011542;28;20126;-46
2023/03/26 01:24:35;;;;;;;8.48;1.83;;;8.60;99.90;;;;;;5012386;28;20026;-45
2023/03/26 01:27:16;;;;;;;5.53;1.65;;;8.60;99.90;;;;;;5012270;28;20444;-44
2023/03/26 01:30:06;;;;;;;7.55;2.40;;;8.50;99.90;;;;;;5012291;28;20401;-45
2023/03/26 01:33:02;;;;;;;14.13;2.25;;;8.50;99.90;;;;;;5011914;28;20029;-44
2023/03/26 01:35:37;;;;;;;11.07;2.20;;;8.60;99.90;;;;;;5012195;28;20072;-44
2023/03/26 01:38:11;;;;;;;8.95;2.47;;;8.50;99.90;;;;;;4994520;28;20022;-43
2023/03/26 01:40:57;;;;;;;8.38;2.83;;;8.60;99.90;;;;;;5012039;28;20113;-44
2023/03/26 01:43:44;;;;;;;9.15;2.08;;;8.50;99.90;;;;;;5012203;28;20494;-47
2023/03/26 01:46:12;;;;;;;7.38;1.85;;;8.50;99.90;;;;;;5012085;28;20041;-44
2023/03/26 01:48:40;;;;;;;5.80;3.22;;;8.50;99.90;;;;;;5011996;28;20038;-47
2023/03/26 01:51:09;;;;;;;8.60;2.10;;;8.50;99.90;;;;;;5011776;28;20022;-44
2023/03/26 01:53:41;;;;;;;9.10;2.15;;;8.50;99.90;;;;;;5011708;28;20057;-47
2023/03/26 01:56:15;;;;;;;9.45;2.47;;;8.50;99.90;;;;;;5012019;28;20025;-45
2023/03/26 01:59:06;;;;;;;8.25;1.98;;;8.50;99.90;;;;;;5011868;28;20026;-47
2023/03/26 02:01:44;;;;;;;13.98;2.28;;;8.40;99.90;;;;;;5011829;28;20221;-44
2023/03/26 02:04:17;;;;;;;11.27;2.75;;;8.40;99.90;;;;;;5011841;28;20398;-48
2023/03/26 02:06:52;;;;;;;3.92;2.20;;;8.40;99.90;;;;;;5011621;28;20022;-46
2023/03/26 02:09:23;;;;;;;7.07;2.35;;;8.50;99.90;;;;;;5011790;28;20310;-44
2023/03/26 02:11:50;;;;;;;9.18;2.60;;;8.50;99.90;;;;;;5011428;28;20420;-48
2023/03/26 02:14:16;;;;;;;7.07;2.25;;;8.50;99.90;;;;;;4993915;28;20110;-46
2023/03/26 02:16:45;;;;;;;5.88;1.98;;;8.50;99.90;;;;;;5011502;28;20025;-46
2023/03/26 02:19:14;;;;;;;10.45;1.85;;;8.50;99.90;;;;;;5011643;28;20437;-45
2023/03/26 02:21:40;;;;;;;7.47;1.88;;;8.50;99.90;;;;;;5011138;28;20030;-46
2023/03/26 02:24:06;;;;;;;7.88;2.08;;;8.50;99.90;;;;;;5011281;28;20038;-45
2023/03/26 02:26:34;;;;;;;13.63;3.17;;;8.50;99.90;;;;;;5011202;28;20033;-46
2023/03/26 02:29:00;;;;;;;7.72;2.05;;;8.50;99.90;;;;;;4994380;28;20022;-46
2023/03/26 02:31:26;;;;;;;7.78;2.00;;;8.50;99.90;;;;;;5011373;28;20026;-46
2023/03/26 02:33:54;;;;;;;6.47;2.00;;;8.60;99.90;;;;;;5012187;28;20068;-45
2023/03/26 02:36:23;;;;;;;8.13;2.40;;;8.60;99.90;;;;;;5015311;28;20022;-46
2023/03/26 02:38:50;;;;;;;14.38;1.88;;;8.60;99.90;;;;;;5015065;28;20022;-49
2023/03/26 02:41:16;;;;;;;12.73;2.63;;;8.60;99.90;;;;;;5015102;28;20022;-47
2023/03/26 02:43:42;;;;;;;9.00;1.85;;;8.60;99.90;;;;;;5015382;28;20030;-47
2023/03/26 02:46:08;;;;;;;11.52;2.17;;;8.60;99.90;;;;;;5015158;28;20512;-47
2023/03/26 02:48:36;;;;;;;11.75;2.35;;;8.60;99.90;;;;;;5015020;28;20033;-51
2023/03/26 02:51:02;;;;;;;6.78;2.30;;;8.60;99.90;;;;;;5014819;28;20034;-49
2023/03/26 02:53:31;;;;;;;7.18;2.50;;;8.70;99.90;;;;;;4997044;28;20448;-46
2023/03/26 02:55:57;;;;;;;9.05;2.67;;;8.60;99.90;;;;;;5015424;28;20245;-46
2023/03/26 02:58:25;;;;;;;12.05;2.08;;;8.60;99.90;;;;;;5015100;28;20552;-46
2023/03/26 03:00:54;;;;;;;8.77;2.22;;;8.60;99.90;;;;;;5014848;28;20022;-47
2023/03/26 03:03:25;;;;;;;6.00;2.08;;;8.70;99.90;;;;;;5014739;28;20021;-47
2023/03/26 03:05:52;;;;;;;7.75;2.63;;;8.70;99.90;;;;;;5014722;28;20022;-45
2023/03/26 03:08:18;;;;;;;9.48;2.40;;;8.70;99.90;;;;;;5015719;28;20042;-46
2023/03/26 03:11:01;;;;;;;11.80;2.78;;;8.70;99.90;;;;;;4997177;28;20314;-45
2023/03/26 03:13:27;;;;;;;9.30;2.80;;;8.70;99.90;;;;;;5014896;28;20084;-46
2023/03/26 03:15:53;;;;;;;10.07;2.25;;;8.70;99.90;;;;;;4997322;28;20022;-44
2023/03/26 03:18:19;;;;;;;7.25;2.50;;;8.80;99.90;;;;;;5014827;28;20025;-45
2023/03/26 03:20:45;;;;;;;13.25;2.67;;;8.70;99.90;;;;;;5014234;28;20022;-47
2023/03/26 03:23:11;;;;;;;7.80;2.17;;;8.80;99.90;;;;;;5014427;28;20081;-47
2023/03/26 03:25:37;;;;;;;11.18;2.20;;;8.80;99.90;;;;;;5014459;28;20085;-46
2023/03/26 03:28:03;;;;;;;11.10;2.28;;;8.80;99.90;;;;;;5014541;28;20053;-47
2023/03/26 03:30:29;;;;;;;6.72;1.85;;;8.70;99.90;;;;;;5014401;28;20026;-49
2023/03/26 03:32:57;;;;;;;12.32;2.25;;;8.70;99.90;;;;;;5014278;28;20397;-46
2023/03/26 03:35:23;;;;;;;7.35;2.17;;;8.70;99.90;;;;;;5014437;28;20018;-50
2023/03/26 03:37:49;;;;;;;9.45;2.08;;;8.70;99.90;;;;;;4996967;28;20076;-46
2023/03/26 03:40:14;;;;;;;4.78;2.10;;;8.70;99.90;;;;;;5014140;28;20425;-47
2023/03/26 03:42:40;;;;;;;18.25;2.67;;;8.70;99.90;;;;;;5014235;28;20092;-46
2023/03/26 03:45:06;;;;;;;7.80;2.22;;;8.70;99.90;;;;;;5014040;28;20072;-49
2023/03/26 03:47:32;;;;;;;9.38;2.92;;;8.80;99.90;;;;;;5014521;28;20026;-46
2023/03/26 03:49:59;;;;;;;11.77;3.00;;;8.80;99.90;;;;;;5014794;28;20037;-46
2023/03/26 03:52:26;;;;;;;18.00;3.47;;;8.80;99.90;;;;;;5014291;28;20458;-46
2023/03/26 03:54:51;;;;;;;10.60;1.98;;;8.90;99.90;;;;;;5014316;28;20021;-46
2023/03/26 03:57:17;;;;;;;11.32;2.10;;;9.00;99.90;;;;;;5014331;28;20026;-45
2023/03/26 03:59:43;;;;;;;10.77;2.42;;;9.00;99.90;;;;;;4996504;28;20030;-46
2023/03/26 04:02:09;;;;;;;12.80;2.78;;;8.90;99.90;;;;;;5013858;28;20391;-46
2023/03/26 04:04:36;;;;;;;7.22;2.65;;;8.90;99.90;;;;;;5013875;28;20037;-50
2023/03/26 04:07:02;;;;;;;10.20;2.50;;;8.90;99.90;;;;;;5013930;28;20493;-46
2023/03/26 04:09:28;;;;;;;10.02;2.75;;;8.80;99.90;;;;;;5014062;28;20120;-47
2023/03/26 04:11:53;;;;;;;14.32;2.95;;;8.80;99.90;;;;;;5013512;28;20112;-43
2023/03/26 04:14:19;;;;;;;14.27;2.75;;;8.80;99.90;;;;;;5014021;28;20565;-50
2023/03/26 04:16:44;;;;;;;10.40;2.33;;;8.80;99.90;;;;;;5013589;28;20080;-50
2023/03/26 04:19:10;;;;;;;19.38;2.97;;;8.80;99.90;;;;;;5013449;28;20021;-46
2023/03/26 04:21:36;;;;;;;4.97;2.10;;;8.80;99.90;;;;;;5012931;28;20482;-46
2023/03/26 04:24:03;;;;;;;8.02;2.00;;;8.80;99.90;;;;;;5013254;28;20113;-46
2023/03/26 04:26:30;;;;;;;11.60;2.70;;;8.70;99.90;;;;;;5013226;28;20030;-50
2023/03/26 04:28:59;;;;;;;8.23;2.53;;;8.70;99.90;;;;;;5013267;28;20437;-46
2023/03/26 04:31:29;;;;;;;8.77;2.03;;;8.70;99.90;;;;;;5013373;28;20056;-51
2023/03/26 04:34:06;;;;;;;9.75;2.03;;;8.70;99.90;;;;;;5013292;28;20105;-49
2023/03/26 04:36:33;;;;;;;11.88;2.40;;;8.80;99.90;;;;;;5013053;28;20105;-51
2023/03/26 04:39:03;;;;;;;10.95;3.70;;;8.80;99.90;;;;;;5013122;28;20022;-50
2023/03/26 04:41:31;;;;;;;9.70;1.88;;;8.80;99.90;;;;;;4995482;28;20022;-47
2023/03/26 04:44:00;;;;;;;12.60;2.15;;;8.90;99.90;;;;;;5012898;28;20018;-50
2023/03/26 04:46:26;;;;;;;7.93;2.53;;;8.90;99.90;;;;;;5012846;28;20078;-46
2023/03/26 04:48:53;;;;;;;11.50;2.05;;;8.90;99.90;;;;;;5012881;28;20108;-52
2023/03/26 04:51:23;;;;;;;10.18;2.10;;;8.80;99.90;;;;;;5012777;28;20481;-46
2023/03/26 04:53:57;;;;;;;13.55;2.65;;;8.70;99.90;;;;;;5012606;28;20048;-48
2023/03/26 04:56:49;;;;;;;5.93;2.23;;;8.70;99.90;;;;;;5012190;28;20022;-48
2023/03/26 04:59:29;;;;;;;10.05;2.47;;;8.60;99.90;;;;;;5012765;28;20053;-46
2023/03/26 05:01:56;;;;;;;5.15;1.80;;;8.60;99.90;;;;;;5012326;28;20120;-49
2023/03/26 05:04:22;;;;;;;9.38;2.03;;;8.60;99.90;;;;;;5012616;28;20037;-47
2023/03/26 05:06:48;;;;;;;9.77;2.00;;;8.60;99.90;;;;;;5012544;28;20512;-45
2023/03/26 05:09:14;;;;;;;10.38;3.05;;;8.70;99.90;;;;;;5012631;28;20068;-46
2023/03/26 05:11:40;;;;;;;10.60;1.95;;;8.80;99.90;;;;;;5012310;28;20025;-49
2023/03/26 05:14:06;;;;;;;8.63;2.17;;;8.80;99.90;;;;;;5012434;28;20022;-45
2023/03/26 05:16:32;;;;;;;10.13;2.05;;;8.80;99.90;;;;;;5012202;28;20057;-48
2023/03/26 05:18:58;;;;;;;8.45;2.03;;;8.80;99.90;;;;;;5012436;28;20029;-48
2023/03/26 05:21:23;;;;;;;8.18;2.15;;;8.80;99.90;;;;;;5012036;28;20022;-49
2023/03/26 05:23:49;;;;;;;7.07;2.42;;;8.70;99.90;;;;;;5012186;28;20417;-48
2023/03/26 05:26:14;;;;;;;7.63;2.30;;;8.60;99.90;;;;;;5012682;28;20025;-47
2023/03/26 05:28:40;;;;;;;6.53;2.78;;;8.60;99.90;;;;;;5012428;28;20639;-49
2023/03/26 05:31:07;;;;;;;7.10;2.33;;;8.50;99.90;;;;;;5012125;28;20033;-46
2023/03/26 05:33:32;;;;;;;7.70;2.00;;;8.50;99.90;;;;;;5012401;28;20028;-46
2023/03/26 05:36:06;;;;;;;6.20;2.10;;;8.50;99.90;;;;;;5012154;28;20021;-49
2023/03/26 05:38:32;;;;;;;7.00;2.45;;;8.50;99.90;;;;;;5012066;28;20025;-48
2023/03/26 05:41:03;;;;;;;10.75;2.70;;;8.50;99.90;;;;;;5011896;28;20026;-51
2023/03/26 05:43:29;;;;;;;14.13;2.20;;;8.50;99.90;;;;;;5011942;28;20519;-47
2023/03/26 05:45:55;;;;;;;7.95;2.17;;;8.60;99.90;;;;;;5012201;28;20026;-50
2023/03/26 05:48:21;;;;;;;21.77;3.17;;;8.60;99.90;;;;;;4994179;28;20032;-47
2023/03/26 05:50:51;;;;;;;12.02;2.85;;;8.60;99.90;;;;;;5011779;28;20034;-48
2023/03/26 05:53:17;;;;;;;9.50;3.15;;;;;;;;;;4994002;28;20565;-48
2023/03/26 05:55:45;;;;;;;10.50;2.28;;;8.60;99.90;;;;;;5011881;28;20057;-45
2023/03/26 05:58:12;;;;;;;12.68;2.25;;;8.60;99.90;;;;;;5011737;28;20072;-51
2023/03/26 06:00:37;;;;;;;16.50;2.55;;;8.60;99.90;;;;;;5011497;28;20072;-46
2023/03/26 06:03:04;;;;;;;13.68;2.60;;;8.70;99.90;;;;;;5012186;28;20401;-47
2023/03/26 06:05:36;;;;;;;11.65;2.30;;;8.60;99.90;;;;;;5011749;28;20030;-46
2023/03/26 06:08:02;;;;;;;9.50;2.38;;;8.60;99.90;;;;;;5010861;28;20033;-45
2023/03/26 06:10:28;;;;;;;9.52;2.13;;;8.60;99.90;;;;;;5011278;28;20076;-49
2023/03/26 06:12:53;;;;;;;6.75;2.50;;;8.50;99.90;;;;;;5011483;28;20034;-47
2023/03/26 06:15:19;;;;;;;16.50;2.60;;;8.60;99.90;;;;;;5011606;28;20028;-51
2023/03/26 06:17:45;;;;;;;9.40;3.28;;;8.60;99.90;;;;;;5011680;28;20101;-46
2023/03/26 06:20:11;;;;;;;12.65;2.40;;;8.60;99.90;;;;;;4993640;28;20029;-45
2023/03/26 06:22:37;;;;;;;7.88;2.20;;;8.60;99.90;;;;;;5037960;22;20037;-45
2023/03/26 06:25:02;;;;;;;9.60;2.25;;;8.60;99.90;;;;;;5010640;28;20587;-47
2023/03/26 06:27:28;;;;;;;13.32;2.83;;;8.60;99.90;;;;;;5031489;28;20101;-43
2023/03/26 06:29:54;;;;;;;14.30;2.35;;;8.60;99.90;;;;;;5031536;28;20057;-50
2023/03/26 06:32:20;;;;;;;6.15;2.92;;;8.70;99.90;;;;;;5031218;28;20034;-48
2023/03/26 06:34:45;;;;;;;14.73;3.25;;;8.60;99.90;;;;;;5031395;28;20190;-46
2023/03/26 06:37:11;;;;;;;9.40;3.00;;;8.60;99.90;;;;;;5031179;28;20096;-47
2023/03/26 06:39:36;;;;;;;6.55;2.42;;;8.70;99.90;;;;;;5013497;28;20124;-46
2023/03/26 06:42:02;;;;;;;13.02;2.55;;;8.70;99.90;;;;;;5031269;28;20051;-47
2023/03/26 06:44:27;;;;;;;15.52;2.40;;;8.70;99.90;;;;;;5031214;28;20037;-46
2023/03/26 06:46:53;;;;;;;9.27;2.97;;;8.70;99.90;;;;;;5031518;28;20040;-46
2023/03/26 06:49:19;;;;;;;14.85;4.28;;;8.70;99.90;;;;;;5031146;28;20033;-49
2023/03/26 06:51:45;;;;;;;11.27;3.08;;;8.70;99.90;;;;;;5030907;28;20025;-48
2023/03/26 06:54:11;;;;;;;8.02;2.17;;;8.60;99.90;;;;;;5031101;28;20017;-46
2023/03/26 06:56:36;;;;;;;7.68;2.17;;;8.60;99.90;;;;;;5030934;28;20412;-49
2023/03/26 06:59:01;;;;;;;10.20;2.78;;;8.60;99.90;;;;;;5031051;28;20040;-47
2023/03/26 07:01:27;;;;;;;9.38;3.20;;;8.60;99.90;;;;;;5030877;28;20101;-48
2023/03/26 07:03:53;;;;;;;9.68;3.00;;;8.50;99.90;;;;;;5030989;28;20446;-51
2023/03/26 07:06:18;;;;;;;11.25;2.95;;;8.50;99.90;;;;;;5031059;28;20509;-49
2023/03/26 07:08:44;;;;;;;9.20;2.67;;;8.50;99.90;;;;;;5030960;28;20100;-47
2023/03/26 07:11:10;;;;;;;19.35;3.15;;;8.60;99.90;;;;;;5031063;28;20033;-49
2023/03/26 07:13:36;;;;;;;8.18;2.72;;;8.50;99.90;;;;;;5030651;28;20025;-47
2023/03/26 07:16:02;;;;;;;10.00;2.97;;;8.50;99.90;;;;;;5013296;28;20105;-48
2023/03/26 07:18:27;;;;;;;15.27;2.80;;;8.50;99.90;;;;;;5030856;28;20155;-50
2023/03/26 07:20:53;;;;;;;10.60;3.42;;;8.50;99.90;;;;;;5032787;28;20501;-47
2023/03/26 07:23:20;;;;;;;16.38;3.47;;;8.50;99.90;;;;;;5034287;28;20464;-49
2023/03/26 07:25:47;;;;;;;8.48;2.83;;;8.50;99.90;;;;;;5034499;28;20634;-46
2023/03/26 07:28:35;;;;;;;8.07;2.08;;;8.50;99.90;;;;;;5034363;28;20083;-50
2023/03/26 07:31:12;;;;;;;11.70;3.85;;;8.50;99.90;;;;;;5034153;28;20392;-46
2023/03/26 07:34:03;;;;;;;7.47;2.60;;;8.50;99.90;;;;;;5034142;28;20029;-49
2023/03/26 07:36:37;;;;;;;11.50;3.17;;;8.40;99.90;;;;;;5034290;28;20041;-49
2023/03/26 07:39:13;;;;;;;8.10;2.50;;;8.40;99.90;;;;;;5034194;28;20473;-49
2023/03/26 07:41:52;;;;;;;16.30;2.80;;;8.50;99.90;;;;;;5034032;28;20102;-45
2023/03/26 07:44:43;;;;;;;11.35;3.35;;;8.50;99.90;;;;;;5033981;28;20022;-47
2023/03/26 07:47:24;;;;;;;16.60;3.33;;;8.50;99.90;;;;;;5034058;28;20021;-50
2023/03/26 07:49:52;;;;;;;15.52;3.30;;;8.50;99.90;;;;;;5034061;28;20022;-47
2023/03/26 07:52:18;;;;;;;14.10;3.05;;;8.60;99.90;;;;;;5034912;28;20025;-48
2023/03/26 07:54:43;;;;;;;10.05;3.03;;;8.60;99.90;;;;;;5015923;28;20087;-48
2023/03/26 07:57:46;;;;;;;13.55;3.13;;;8.70;99.90;;;;;;5033707;28;20037;-51
2023/03/26 08:00:32;;;;;;;11.55;3.42;;;8.70;99.90;;;;;;5033544;28;20021;-47
2023/03/26 08:03:25;;;;;;;12.07;2.83;;;8.70;99.90;;;;;;5015894;28;20029;-50
2023/03/26 08:05:56;;;;;;;5.32;2.53;;;8.70;99.90;;;;;;5033566;28;20021;-49
2023/03/26 08:08:30;;;;;;;10.68;3.13;;;8.70;99.90;;;;;;5015903;28;20029;-48
2023/03/26 08:11:37;;;;;;;14.57;4.85;;;8.70;99.90;;;;;;5033652;28;20029;-49
2023/03/26 08:14:18;;;;;;;11.70;2.80;;;8.80;99.90;;;;;;5033435;28;20021;-48
2023/03/26 08:17:02;;;;;;;7.00;3.67;;;8.80;99.90;;;;;;5032839;28;20018;-49
2023/03/26 08:19:40;;;;;;;8.77;3.30;;;8.80;99.90;;;;;;5030875;28;20029;-50
2023/03/26 08:22:26;;;;;;;9.48;3.13;;;8.80;99.90;;;;;;5032897;28;20017;-48
2023/03/26 08:25:18;;;;;;;8.93;2.77;;;8.80;99.90;;;;;;5031895;28;20037;-46
2023/03/26 08:28:36;;;;;;;8.57;2.85;;;8.80;99.90;;;;;;5032898;28;20441;-53
2023/03/26 08:31:02;;;;;;;11.30;3.15;;;8.80;99.90;;;;;;4923776;29;20076;-50
2023/03/26 08:33:29;;;;;;;18.38;3.40;;;8.90;99.90;;;;;;4915835;29;20027;-47
2023/03/26 08:35:55;;;;;;;14.57;3.42;;;8.90;99.90;;;;;;4968652;28;20044;-46
2023/03/26 08:38:20;;;;;;;7.88;2.65;;;8.90;99.90;;;;;;5016307;28;20022;-48
2023/03/26 08:41:07;;;;;;;7.18;3.13;;;8.90;99.90;;;;;;5032787;28;20032;-49
2023/03/26 08:44:06;;;;;;;11.38;3.38;;;8.90;99.90;;;;;;5032293;28;20075;-48
2023/03/26 08:46:56;;;;;;;14.70;3.50;;;8.90;99.90;;;;;;5025988;28;20509;-43
2023/03/26 08:50:02;;;;;;;13.52;4.32;;;8.90;99.90;;;;;;5032860;28;20030;-53
2023/03/26 08:52:52;;;;;;;12.43;3.40;;;8.90;99.90;;;;;;5031156;28;20503;-47
2023/03/26 08:56:05;;;;;;;9.88;3.15;;;8.90;99.90;;;;;;5010589;28;20029;-48
2023/03/26 08:58:52;;;;;;;15.70;6.78;;;8.90;99.90;;;;;;5029374;28;20034;-49
2023/03/26 09:01:21;;;;;;;13.13;2.97;;;8.90;99.90;;;;;;5013883;28;20072;-51
2023/03/26 09:04:07;;;;;;;10.55;3.58;;;8.80;99.90;;;;;;5018223;28;20033;-47
2023/03/26 09:06:56;;;;;;;11.95;4.10;;;8.90;99.90;;;;;;5032723;28;20235;-52
2023/03/26 09:09:31;;;;;;;6.90;2.97;;;8.90;99.90;;;;;;5015097;28;20033;-49
2023/03/26 09:12:02;;;;;;;17.52;3.55;;;8.90;99.90;;;;;;5030403;28;20095;-51
2023/03/26 09:14:44;;;;;;;10.60;3.78;;;9.00;99.90;;;;;;5031142;28;20018;-49
2023/03/26 09:17:18;;;;;;;11.75;4.07;;;9.00;99.90;;;;;;5028926;28;20025;-50
2023/03/26 09:19:55;;;;;;;10.48;3.30;;;9.00;99.90;;;;;;5032042;28;20493;-47
2023/03/26 09:22:26;;;;;;;7.45;2.65;;;9.10;99.90;;;;;;5032117;28;20033;-48
2023/03/26 09:25:21;;;;;;;15.18;3.35;;;9.10;99.90;;;;;;5018648;28;20400;-49
2023/03/26 09:28:11;;;;;;;6.30;2.58;;;9.00;99.90;;;;;;5014562;28;20041;-49
2023/03/26 09:31:08;;;;;;;8.02;3.33;;;9.00;99.90;;;;;;5032382;28;20036;-49
2023/03/26 09:33:55;;;;;;;7.70;3.60;;;9.00;99.90;;;;;;5030677;28;20565;-49
2023/03/26 09:36:20;;;;;;;10.75;4.25;;;9.00;99.90;;;;;;5032032;28;20017;-51
2023/03/26 09:39:16;;;;;;;7.95;2.90;;;9.00;99.90;;;;;;5031793;28;20209;-48
2023/03/26 09:41:47;;;;;;;7.50;2.85;;;9.10;99.90;;;;;;5033030;28;20036;-51
2023/03/26 09:44:15;;;;;;;5.10;2.47;;;9.00;99.90;;;;;;5030597;28;20033;-49
2023/03/26 09:46:40;;;;;;;13.45;3.03;;;9.10;99.90;;;;;;5031395;28;20025;-52
2023/03/26 09:49:32;;;;;;;13.27;2.80;;;9.00;99.90;;;;;;5031274;28;20033;-47
2023/03/26 09:52:35;;;;;;;6.68;2.67;;;9.10;99.90;;;;;;5026371;28;20378;-52
2023/03/26 09:55:39;;;;;;;11.40;2.35;;;9.00;99.90;;;;;;5029339;28;20389;-49
2023/03/26 09:58:25;;;;;;;7.28;2.45;;;9.00;99.90;;;;;;5031210;28;20104;-49
2023/03/26 10:01:07;;;;;;;8.63;2.80;;;9.00;99.90;;;;;;5013751;28;20021;-47
2023/03/26 10:03:55;;;;;;;6.00;2.83;;;9.10;99.90;;;;;;5031382;28;20458;-52
2023/03/26 10:06:41;;;;;;;7.97;2.42;;;9.20;99.90;;;;;;5031453;28;20036;-50
2023/03/26 10:09:18;;;;;;;12.32;2.72;;;9.40;99.90;;;;;;5031103;28;20400;-48
2023/03/26 10:12:21;;;;;;;7.97;2.67;;;9.60;99.90;;;;;;5005780;28;20040;-47
2023/03/26 10:15:12;;;;;;;5.40;2.15;;;10.10;99.90;;;;;;5031105;28;20105;-52
2023/03/26 10:17:37;;;;;;;7.97;2.20;;;10.50;99.90;;;;;;5031215;28;20096;-50
2023/03/26 10:20:22;;;;;;;4.78;2.17;;;11.00;99.90;;;;;;5031190;28;20068;-52
2023/03/26 10:23:02;;;;;;;9.15;2.45;;;11.50;99.90;;;;;;5031163;28;20022;-52
2023/03/26 10:25:49;;;;;;;7.97;1.90;;;11.80;99.90;;;;;;5031269;28;20099;-48
2023/03/26 10:28:23;;;;;;;8.38;2.17;;;11.90;99.90;;;;;;5013287;28;20500;-52
2023/03/26 10:31:34;;;;;;;6.97;2.43;;;12.00;99.90;;;;;;5031251;28;20041;-46
2023/03/26 10:34:07;;;;;;;6.40;1.42;;;12.30;99.90;;;;;;5031473;28;20454;-47
2023/03/26 10:36:32;;;;;;;9.07;1.48;;;12.20;99.90;;;;;;5031034;28;20021;-47
2023/03/26 10:39:40;;;;;;;5.47;2.20;;;11.90;99.90;;;;;;5030882;28;20386;-47
2023/03/26 10:42:33;;;;;;;4.13;1.35;;;11.40;99.90;;;;;;5028391;28;20459;-47
2023/03/26 10:45:12;;;;;;;4.82;1.48;;;11.20;99.90;;;;;;5031094;28;20025;-48
2023/03/26 10:47:59;;;;;;;5.95;2.05;;;11.00;99.90;;;;;;5031011;28;20021;-50
2023/03/26 10:50:42;;;;;;;6.43;2.40;;;10.90;99.90;;;;;;5030725;28;20135;-48
2023/03/26 10:53:32;;;;;;;3.60;1.40;;;10.90;99.90;;;;;;5030561;28;20026;-47
2023/03/26 10:56:25;;;;;;;6.43;2.05;;;11.10;99.90;;;;;;5033337;28;20052;-49
2023/03/26 10:58:52;;;;;;;8.45;2.40;;;11.20;99.90;;;;;;5023927;28;20025;-47
2023/03/26 11:01:31;;;;;;;5.68;1.60;;;11.50;99.90;;;;;;5034727;28;20051;-50
2023/03/26 11:04:23;;;;;;;6.15;2.17;;;11.80;99.90;;;;;;5034686;28;20049;-47
2023/03/26 11:07:25;;;;;;;8.40;2.13;;;11.90;99.90;;;;;;5034461;28;20035;-48
2023/03/26 11:10:04;;;;;;;3.40;2.03;;;11.80;99.90;;;;;;4987619;28;20044;-48
2023/03/26 11:12:54;;;;;;;3.10;1.83;;;12.00;99.90;;;;;;5033437;28;20025;-46
2023/03/26 11:15:29;;;;;;;6.32;2.08;;;12.20;99.90;;;;;;5034280;28;20026;-48
2023/03/26 11:18:19;;;;;;;9.23;2.03;;;12.40;99.90;;;;;;5034302;28;20022;-50
2023/03/26 11:21:13;;;;;;;11.18;2.47;;;12.60;99.90;;;;;;5034014;28;20021;-49
2023/03/26 11:23:54;;;;;;;6.22;2.42;;;12.50;99.90;;;;;;5033783;28;20033;-46
2023/03/26 11:26:37;;;;;;;7.68;3.15;;;12.20;99.90;;;;;;5034526;28;20471;-48
2023/03/26 11:29:26;;;;;;;4.85;1.77;;;11.90;99.90;;;;;;5023085;28;20501;-44
2023/03/26 11:32:16;;;;;;;5.28;2.10;;;11.70;99.90;;;;;;5025063;28;20029;-44
2023/03/26 11:34:51;;;;;;;5.10;2.10;;;11.50;99.90;;;;;;5014424;28;20026;-45
2023/03/26 11:37:46;;;;;;;5.13;2.20;;;11.40;99.90;;;;;;5033412;28;20356;-49
2023/03/26 11:40:20;;;;;;;5.13;2.00;;;11.30;99.90;;;;;;5029557;28;20033;-47
2023/03/26 11:42:48;;;;;;;4.07;2.22;;;11.30;99.90;;;;;;5031282;28;20120;-49
2023/03/26 11:45:22;;;;;;;4.07;1.88;;;11.30;99.90;;;;;;5014052;28;20049;-52
2023/03/26 11:48:17;;;;;;;7.13;2.35;;;11.40;99.90;;;;;;5005448;28;20409;-48
2023/03/26 11:50:46;;;;;;;6.50;1.77;;;11.40;99.90;;;;;;5021696;28;20053;-47
2023/03/26 11:53:16;;;;;;;43.38;27.88;;;11.30;99.90;;;;;;5023983;28;20033;-48
2023/03/26 11:55:56;;;;;;;22.83;12.93;;;11.30;99.90;;;;;;5020623;28;20176;-52
2023/03/26 11:58:30;;;;;;;5.82;3.15;;;11.30;99.90;;;;;;5033442;28;20025;-48
2023/03/26 12:00:56;;;;;;;2.85;2.42;;;11.30;99.90;;;;;;5029083;28;20036;-47
2023/03/26 12:03:22;;;;;;;3.55;1.67;;;11.30;99.90;;;;;;5027428;28;20030;-49
2023/03/26 12:05:50;;;;;;;3.03;1.25;;;11.50;99.90;;;;;;5014105;28;20026;-47
2023/03/26 12:08:25;;;;;;;1.08;0.60;;;11.70;99.90;;;;;;5026448;28;20026;-47
2023/03/26 12:11:05;;;;;;;1.27;0.80;;;11.70;99.90;;;;;;4997935;28;20509;-52
2023/03/26 12:13:41;;;;;;;0.60;0.60;;;11.80;99.90;;;;;;5027447;28;20049;-54
2023/03/26 12:16:16;;;;;;;2.83;0.70;;;11.90;99.90;;;;;;5032821;28;20018;-49
2023/03/26 12:18:43;;;;;;;1.42;0.70;;;12.10;99.90;;;;;;5033393;28;20029;-50
2023/03/26 12:21:17;;;;;;;2.05;0.80;;;12.30;99.90;;;;;;5032788;28;20493;-50
2023/03/26 12:24:04;;;;;;;1.15;0.52;;;12.40;99.90;;;;;;5028256;28;20073;-49
2023/03/26 12:26:41;;;;;;;4.35;0.95;;;12.40;99.90;;;;;;5031666;28;20037;-50
2023/03/26 12:29:16;;;;;;;2.05;0.77;;;12.50;99.90;;;;;;5010995;28;20026;-49
2023/03/26 12:31:49;;;;;;;1.00;0.60;;;12.50;99.90;;;;;;5003586;28;20497;-48
2023/03/26 12:34:18;;;;;;;0.63;0.63;;;12.60;99.90;;;;;;5019811;28;20032;-50
2023/03/26 12:36:53;;;;;;;1.13;0.65;;;12.50;99.90;;;;;;5007024;28;20025;-50
2023/03/26 12:39:26;;;;;;;0.52;0.50;;;12.60;99.90;;;;;;5006834;28;20401;-47
2023/03/26 12:41:57;;;;;;;3.13;0.82;;;12.60;99.90;;;;;;5032265;28;20485;-52
2023/03/26 12:44:48;;;;;;;3.35;0.57;;;12.70;99.90;;;;;;5028500;28;20082;-51
2023/03/26 12:47:19;;;;;;;2.92;1.58;;;12.70;99.90;;;;;;5023759;28;20057;-49
2023/03/26 12:49:46;;;;;;;1.10;0.60;;;12.70;99.90;;;;;;5014950;28;20391;-51
2023/03/26 12:52:24;;;;;;;0.80;0.80;;;12.70;99.90;;;;;;5010764;28;20029;-54
2023/03/26 12:55:10;;;;;;;1.10;0.65;;;12.60;99.90;;;;;;5032073;28;20393;-44
2023/03/26 12:57:39;;;;;;;;;;;12.60;99.90;;;;;;5028608;28;20152;-49
2023/03/26 13:00:22;;;;;;;1.17;0.60;;;12.50;99.90;;;;;;5031951;28;19909;-49
2023/03/26 13:02:57;;;;;;;2.53;1.05;;;12.60;99.90;;;;;;4998956;28;20028;-50
2023/03/26 13:05:48;;;;;;;2.40;1.55;;;12.70;99.90;;;;;;5009602;28;20064;-52
2023/03/26 13:08:38;;;;;;;1.27;0.63;;;12.80;99.90;;;;;;5023368;28;20029;-48
2023/03/26 13:11:21;;;;;;;2.88;0.68;;;12.80;99.90;;;;;;5010513;28;20029;-48
2023/03/26 13:14:28;;;;;;;0.88;0.70;;;12.90;99.90;;;;;;5031539;28;20017;-50
2023/03/26 13:17:08;;;;;;;0.88;0.63;;;12.80;99.90;;;;;;5031908;28;20049;-49
2023/03/26 13:19:55;;;;;;;2.47;0.85;;;12.90;99.90;;;;;;5031773;28;20397;-53
2023/03/26 13:22:26;;;;;;;0.75;0.65;;;12.90;99.90;;;;;;5030847;28;20029;-49
2023/03/26 13:25:19;;;;;;;1.45;0.50;;;12.90;99.90;;;;;;5014146;28;20030;-51